Time;durP1;ratioP1;P1;durP2;ratioP2;P2;SDS_P1;SDS_P2;PMS_P1;PMS_P2;Temp;Humidity;BMP_temperature;BMP_pressure;BME280_temperature;BME280_humidity;BME280_pressure;Samples;Min_cycle;Max_cycle;Signal;HPM_P1;HPM_P2
2021/06/08 00:00:21;;;;;;;15.43;13.27;;;;;;;17.74;79.54;100945.97;5036148;28;20523;-61
2021/06/08 00:02:49;;;;;;;15.88;14.18;;;;;;;17.76;79.47;100954.75;5014713;28;20057;-62
2021/06/08 00:05:16;;;;;;;18.40;14.68;;;;;;;17.78;79.05;100947.47;5026406;28;20172;-62
2021/06/08 00:07:43;;;;;;;15.27;12.95;;;;;;;17.77;79.11;100950.25;5031594;28;20052;-62
2021/06/08 00:10:11;;;;;;;16.17;13.48;;;;;;;17.76;79.26;100949.41;5032563;28;20138;-62
2021/06/08 00:12:38;;;;;;;19.38;14.20;;;;;;;17.75;79.32;100944.13;5027534;28;20932;-60
2021/06/08 00:15:07;;;;;;;19.23;13.68;;;;;;;17.75;79.18;100942.31;5031400;28;20045;-61
2021/06/08 00:17:33;;;;;;;16.17;13.73;;;;;;;17.77;78.89;100942.22;5029309;28;20489;-62
2021/06/08 00:20:00;;;;;;;15.20;13.38;;;;;;;17.75;78.55;100945.00;5039777;28;20072;-61
2021/06/08 00:22:27;;;;;;;16.05;12.82;;;;;;;17.70;79.37;100949.78;5027741;28;20053;-60
2021/06/08 00:24:54;;;;;;;15.07;12.77;;;;;;;17.68;79.24;100946.34;5032905;28;20044;-62
2021/06/08 00:27:21;;;;;;;14.43;12.93;;;;;;;17.66;79.25;100956.31;5038631;28;20049;-60
2021/06/08 00:29:47;;;;;;;15.07;13.48;;;;;;;17.65;79.45;100957.28;5032780;28;20631;-60
2021/06/08 00:32:14;;;;;;;15.80;12.68;;;;;;;17.66;79.15;100956.31;5015395;28;20068;-61
2021/06/08 00:34:41;;;;;;;18.05;13.75;;;;;;;17.67;79.38;100954.50;5031292;28;20061;-61
2021/06/08 00:37:07;;;;;;;15.13;13.30;;;;;;;17.67;79.28;100958.03;5030909;28;20057;-62
2021/06/08 00:39:34;;;;;;;15.07;13.38;;;;;;;17.70;79.11;100947.13;5031690;28;20059;-62
2021/06/08 00:42:00;;;;;;;16.02;12.82;;;;;;;17.71;79.38;100948.84;5031574;28;20493;-61
2021/06/08 00:44:27;;;;;;;15.07;13.20;;;;;;;17.71;79.30;100950.66;5026116;28;20067;-62
2021/06/08 00:46:54;;;;;;;14.98;13.27;;;;;;;17.74;79.20;100942.41;5029777;28;20045;-62
2021/06/08 00:49:24;;;;;;;17.35;12.65;;;;;;;17.74;79.41;100942.41;5028947;28;20053;-62
2021/06/08 00:51:50;;;;;;;16.40;12.50;;;;;;;17.77;79.21;100944.91;5034979;28;20049;-62
2021/06/08 00:54:17;;;;;;;14.73;12.23;;;;;;;17.76;79.24;100938.69;5031029;28;22287;-62
2021/06/08 00:56:46;;;;;;;17.00;12.48;;;;;;;17.77;78.95;100935.03;5034437;28;20052;-61
2021/06/08 00:59:13;;;;;;;14.45;12.73;;;;;;;17.77;79.34;100943.06;5031463;28;20049;-62
2021/06/08 01:01:40;;;;;;;15.07;12.88;;;;;;;17.77;79.43;100936.84;5029657;28;20842;-61
2021/06/08 01:04:09;;;;;;;15.32;12.73;;;;;;;17.77;79.30;100934.19;5028027;28;20049;-62
2021/06/08 01:06:38;;;;;;;15.35;13.15;;;;;;;17.76;79.45;100930.63;5032045;28;20048;-61
2021/06/08 01:09:06;;;;;;;15.85;12.75;;;;;;;17.76;79.28;100929.78;5031917;28;20147;-62
2021/06/08 01:11:33;;;;;;;16.13;12.32;;;;;;;17.77;79.36;100935.03;5029809;28;20046;-61
2021/06/08 01:14:00;;;;;;;14.82;12.73;;;;;;;17.75;79.65;100936.97;5033283;28;20052;-61
2021/06/08 01:16:29;;;;;;;14.65;12.50;;;;;;;17.78;79.64;100942.13;5009301;28;20053;-63
2021/06/08 01:18:56;;;;;;;15.45;12.88;;;;;;;17.78;79.46;100942.13;5024535;28;21858;-62
2021/06/08 01:21:22;;;;;;;17.85;13.45;;;;;;;17.79;79.51;100938.44;5028340;28;20060;-62
2021/06/08 01:23:49;;;;;;;16.25;13.30;;;;;;;17.80;79.32;100939.31;5024549;28;20048;-60
2021/06/08 01:26:17;;;;;;;17.52;13.00;;;;;;;17.78;79.61;100935.91;5012671;28;20159;-61
2021/06/08 01:28:45;;;;;;;15.88;12.88;;;;;;;17.78;79.42;100936.75;5027778;28;20518;-62
2021/06/08 01:31:15;;;;;;;14.27;12.77;;;;;;;17.76;79.65;100933.31;5028897;28;23818;-61
2021/06/08 01:33:43;;;;;;;15.00;13.38;;;;;;;17.74;80.00;100929.88;5031199;28;20079;-62
2021/06/08 01:36:15;;;;;;;16.25;13.45;;;;;;;17.73;79.72;100930.00;5035196;28;20048;-62
2021/06/08 01:38:43;;;;;;;17.38;13.60;;;;;;;17.71;79.71;100938.13;5050053;28;20048;-63
2021/06/08 01:41:13;;;;;;;16.77;13.68;;;;;;;17.66;79.89;100934.88;5029970;28;20472;-61
2021/06/08 01:43:44;;;;;;;15.73;13.63;;;;;;;17.67;79.92;100935.75;5028369;28;20049;-62
2021/06/08 01:46:11;;;;;;;18.67;14.55;;;;;;;17.65;80.29;100940.34;5027775;28;20057;-62
2021/06/08 01:48:38;;;;;;;14.98;12.57;;;;;;;17.64;80.25;100931.44;5025327;28;20049;-62
2021/06/08 01:51:20;;;;;;;14.68;13.10;;;;;;;17.65;80.55;100937.66;5027680;28;20080;-61
2021/06/08 01:53:54;;;;;;;16.55;13.27;;;;;;;17.63;80.67;100931.56;5028073;28;20045;-60
2021/06/08 01:56:26;;;;;;;15.25;13.48;;;;;;;17.62;80.75;100936.06;5025368;28;20406;-59
2021/06/08 01:59:06;;;;;;;16.30;13.70;;;;;;;17.59;80.61;100930.03;5035403;28;20052;-60
2021/06/08 02:01:41;;;;;;;16.58;13.07;;;;;;;17.60;80.68;100937.09;5025381;28;20429;-61
2021/06/08 02:04:17;;;;;;;18.10;14.48;;;;;;;17.59;80.64;100944.28;5036654;28;20071;-59
2021/06/08 02:06:52;;;;;;;15.70;13.52;;;;;;;17.60;80.54;100946.00;5027559;28;20048;-61
2021/06/08 02:09:35;;;;;;;16.35;13.45;;;;;;;17.60;80.70;100946.00;5036405;28;20041;-60
2021/06/08 02:12:14;;;;;;;15.10;12.63;;;;;;;17.57;80.71;100946.19;5035815;28;20176;-61
2021/06/08 02:15:02;;;;;;;16.35;13.90;;;;;;;17.57;80.68;100940.00;5028471;28;20048;-61
2021/06/08 02:17:38;;;;;;;16.90;13.90;;;;;;;17.54;80.75;100938.38;5030217;28;20048;-61
2021/06/08 02:20:11;;;;;;;17.23;14.13;;;;;;;17.55;80.85;100942.75;5033063;28;20055;-62
2021/06/08 02:22:42;;;;;;;16.23;13.57;;;;;;;17.56;80.63;100939.13;5029987;28;20076;-61
2021/06/08 02:25:11;;;;;;;15.80;13.60;;;;;;;17.54;81.08;100936.56;5027799;28;20527;-60
2021/06/08 02:27:39;;;;;;;14.15;12.40;;;;;;;17.53;81.23;100936.66;5039507;28;20045;-61
2021/06/08 02:30:06;;;;;;;19.10;14.25;;;;;;;17.50;81.56;100934.16;5024444;28;20057;-61
2021/06/08 02:32:33;;;;;;;16.80;13.75;;;;;;;17.50;81.80;100936.84;5035892;28;20136;-60
2021/06/08 02:35:00;;;;;;;16.70;14.00;;;;;;;17.49;81.93;100937.81;5031125;28;20072;-60
2021/06/08 02:37:27;;;;;;;16.85;13.32;;;;;;;17.49;82.32;100935.13;5048295;28;20052;-61
2021/06/08 02:39:55;;;;;;;20.52;13.70;;;;;;;17.47;82.52;100942.44;5035029;28;20060;-62
2021/06/08 02:42:23;;;;;;;17.15;13.75;;;;;;;17.47;82.98;100935.22;5030781;28;20083;-61
2021/06/08 02:44:51;;;;;;;15.35;13.38;;;;;;;17.46;83.06;100940.72;5030221;28;20049;-60
2021/06/08 02:47:20;;;;;;;20.05;13.73;;;;;;;17.44;83.17;100948.00;5039033;28;20059;-60
2021/06/08 02:49:48;;;;;;;18.17;14.73;;;;;;;17.40;83.72;100954.50;5039355;28;20075;-61
2021/06/08 02:52:17;;;;;;;16.40;14.55;;;;;;;17.34;84.08;100945.03;5046473;28;20053;-60
2021/06/08 02:54:45;;;;;;;16.95;14.27;;;;;;;17.32;84.13;100952.31;5027812;28;20611;-61
2021/06/08 02:57:11;;;;;;;16.75;14.23;;;;;;;17.33;84.36;100954.03;5043993;28;20057;-61
2021/06/08 02:59:41;;;;;;;16.45;14.50;;;;;;;17.32;84.59;100957.66;5031960;28;20041;-61
2021/06/08 03:02:12;;;;;;;19.42;15.00;;;;;;;17.30;84.64;100954.25;5032608;28;20059;-61
2021/06/08 03:05:00;;;;;;;16.27;14.00;;;;;;;17.32;84.74;100948.78;5033822;28;20048;-61
2021/06/08 03:07:27;;;;;;;15.35;13.13;;;;;;;17.33;84.71;100955.84;5031530;28;20055;-61
2021/06/08 03:09:57;;;;;;;16.75;14.35;;;;;;;17.31;84.41;100965.84;5031570;28;20052;-60
2021/06/08 03:12:34;;;;;;;17.25;14.63;;;;;;;17.28;84.47;100958.00;5030772;28;20049;-60
2021/06/08 03:15:04;;;;;;;15.73;14.13;;;;;;;17.25;84.22;100961.72;5026194;28;20076;-59
2021/06/08 03:17:33;;;;;;;16.63;14.18;;;;;;;17.27;84.51;100962.50;5038707;28;20041;-61
2021/06/08 03:20:09;;;;;;;15.38;13.75;;;;;;;17.28;84.43;100961.53;5028051;28;20052;-60
2021/06/08 03:22:36;;;;;;;18.98;15.18;;;;;;;17.30;84.36;100958.75;5034918;28;20047;-61
2021/06/08 03:25:03;;;;;;;17.38;14.43;;;;;;;17.29;84.45;100965.06;5033686;28;20040;-59
2021/06/08 03:27:32;;;;;;;16.92;14.10;;;;;;;17.28;84.65;100963.34;5027301;28;20464;-61
2021/06/08 03:30:00;;;;;;;16.50;14.70;;;;;;;17.29;84.78;100965.94;5029012;28;20053;-60
2021/06/08 03:32:27;;;;;;;17.15;14.32;;;;;;;17.27;84.80;100966.97;5038452;28;20511;-60
2021/06/08 03:34:54;;;;;;;16.17;13.98;;;;;;;17.25;84.79;100964.41;5040458;28;20060;-60
2021/06/08 03:37:22;;;;;;;17.15;14.23;;;;;;;17.25;84.98;100968.91;5040053;28;20119;-68
2021/06/08 03:39:50;;;;;;;18.02;14.70;;;;;;;17.23;84.79;100966.31;5032057;28;20729;-61
2021/06/08 03:42:17;;;;;;;16.70;14.65;;;;;;;17.26;85.01;100967.94;5029876;28;20053;-61
2021/06/08 03:44:43;;;;;;;16.83;14.77;;;;;;;17.27;84.92;100977.69;5008663;28;20058;-60
2021/06/08 03:47:10;;;;;;;17.85;15.00;;;;;;;17.26;84.72;100970.63;5032224;28;20056;-61
2021/06/08 03:49:37;;;;;;;15.85;14.00;;;;;;;17.26;85.17;100968.81;5031239;28;21922;-60
2021/06/08 03:52:04;;;;;;;19.23;14.30;;;;;;;17.28;84.98;100969.56;5026016;28;20073;-59
2021/06/08 03:54:30;;;;;;;16.38;13.35;;;;;;;17.26;85.10;100966.13;5033082;28;20049;-60
2021/06/08 03:56:59;;;;;;;20.67;14.55;;;;;;;17.28;85.01;100969.56;5022219;28;20071;-60
2021/06/08 03:59:27;;;;;;;22.17;13.88;;;;;;;17.29;84.98;100976.63;5039445;28;20044;-60
2021/06/08 04:01:54;;;;;;;18.90;13.63;;;;;;;17.32;85.13;100978.22;5030395;28;20049;-61
2021/06/08 04:04:22;;;;;;;21.13;14.18;;;;;;;17.35;85.00;100973.53;5030922;28;20048;-60
2021/06/08 04:06:50;;;;;;;15.93;14.05;;;;;;;17.38;84.77;100972.47;5038149;28;20041;-60
2021/06/08 04:09:18;;;;;;;21.27;14.73;;;;;;;17.38;84.55;100973.34;5028272;28;20524;-60
2021/06/08 04:11:48;;;;;;;16.88;14.20;;;;;;;17.39;84.93;100967.03;5031593;28;20057;-60
2021/06/08 04:14:15;;;;;;;17.45;14.20;;;;;;;17.42;84.83;100971.31;5031066;28;20635;-61
2021/06/08 04:16:44;;;;;;;19.77;14.07;;;;;;;17.43;84.39;100975.72;5033014;28;20079;-61
2021/06/08 04:19:13;;;;;;;16.55;14.73;;;;;;;17.44;84.53;100972.09;5030479;28;20052;-62
2021/06/08 04:21:42;;;;;;;15.73;13.20;;;;;;;17.45;84.46;100966.63;5034019;28;20060;-61
2021/06/08 04:24:10;;;;;;;16.10;13.38;;;;;;;17.47;84.44;100969.22;5035999;28;20041;-60
2021/06/08 04:26:37;;;;;;;14.43;12.80;;;;;;;17.51;84.31;100971.56;5027952;28;20049;-62
2021/06/08 04:29:03;;;;;;;17.05;13.63;;;;;;;17.55;83.74;100972.22;5034107;28;20406;-60
2021/06/08 04:31:30;;;;;;;18.30;14.38;;;;;;;17.56;83.92;100965.91;5026139;28;20045;-61
2021/06/08 04:33:57;;;;;;;15.65;13.70;;;;;;;17.59;83.79;100962.16;5030976;28;20684;-61
2021/06/08 04:36:26;;;;;;;14.93;13.32;;;;;;;17.59;83.50;100973.75;5030138;28;20072;-62
2021/06/08 04:38:54;;;;;;;15.60;14.00;;;;;;;17.60;83.45;100969.25;5034527;28;20044;-61
2021/06/08 04:41:21;;;;;;;16.55;14.20;;;;;;;17.63;83.25;100980.59;5025455;28;20394;-59
2021/06/08 04:43:48;;;;;;;15.95;13.90;;;;;;;17.63;83.44;100974.41;5037474;28;20051;-61
2021/06/08 04:46:15;;;;;;;14.40;12.85;;;;;;;17.69;83.24;100974.88;5029227;28;20148;-60
2021/06/08 04:48:42;;;;;;;17.25;14.25;;;;;;;17.74;83.09;100978.09;5034747;28;20093;-61
2021/06/08 04:51:09;;;;;;;16.52;13.82;;;;;;;17.80;83.24;100976.81;5026931;28;20178;-62
2021/06/08 04:53:37;;;;;;;15.93;14.20;;;;;;;17.85;82.76;100980.91;5029766;28;20056;-61
2021/06/08 04:56:06;;;;;;;16.52;14.05;;;;;;;17.89;82.64;100976.19;5037566;28;20049;-60
2021/06/08 04:58:34;;;;;;;16.20;14.48;;;;;;;17.96;82.21;100977.47;5023712;28;20064;-62
2021/06/08 05:01:19;;;;;;;17.30;14.02;;;;;;;17.95;81.83;100980.25;5027025;28;20063;-60
2021/06/08 05:03:49;;;;;;;18.00;15.18;;;;;;;17.95;81.53;100978.44;5027820;28;20071;-61
2021/06/08 05:06:19;;;;;;;15.93;13.93;;;;;;;17.93;81.42;100977.72;5029294;28;20052;-59
2021/06/08 05:08:50;;;;;;;;;;;;;;;17.94;81.50;100967.84;5032900;28;20053;-60
2021/06/08 05:11:19;;;;;;;;;;;;;;;17.96;81.62;100973.94;5030736;28;19929;-60
2021/06/08 05:13:48;;;;;;;18.10;14.52;;;;;;;18.01;81.35;100974.50;5026179;28;19936;-60
2021/06/08 05:16:16;;;;;;;17.55;14.73;;;;;;;18.02;80.48;100968.16;5024540;28;20448;-59
2021/06/08 05:18:45;;;;;;;17.27;15.38;;;;;;;18.03;80.68;100978.78;5024305;28;20710;-60
2021/06/08 05:21:16;;;;;;;16.17;14.48;;;;;;;18.04;80.59;100983.19;5035071;28;20063;-61
2021/06/08 05:23:43;;;;;;;17.55;13.95;;;;;;;18.08;80.89;100981.16;5029574;28;20215;-62
2021/06/08 05:26:11;;;;;;;16.98;14.25;;;;;;;18.13;80.53;100982.53;5030915;28;20800;-61
2021/06/08 05:28:41;;;;;;;17.55;15.13;;;;;;;18.14;80.39;100980.72;5029056;28;20049;-63
2021/06/08 05:31:08;;;;;;;17.65;15.02;;;;;;;18.13;80.45;100984.38;5028491;28;20342;-61
2021/06/08 05:33:36;;;;;;;19.08;16.05;;;;;;;18.16;80.63;100982.34;5030173;28;20045;-60
2021/06/08 05:36:02;;;;;;;17.33;15.35;;;;;;;18.23;80.44;100986.31;5030213;28;20048;-61
2021/06/08 05:38:39;;;;;;;15.90;14.30;;;;;;;18.33;80.34;100985.66;5031430;28;20384;-60
2021/06/08 05:41:08;;;;;;;18.60;16.02;;;;;;;18.40;79.56;100995.88;5034013;28;20045;-61
2021/06/08 05:43:35;;;;;;;17.80;15.20;;;;;;;18.43;79.41;100989.41;5027987;28;20060;-60
2021/06/08 05:46:03;;;;;;;17.60;14.93;;;;;;;18.48;79.52;100996.19;5035035;28;20048;-61
2021/06/08 05:48:30;;;;;;;17.42;15.38;;;;;;;18.51;78.90;100990.59;5028832;28;20044;-60
2021/06/08 05:50:58;;;;;;;17.67;15.68;;;;;;;18.54;78.71;100987.72;5022377;28;20061;-61
2021/06/08 05:53:25;;;;;;;17.83;15.32;;;;;;;18.63;78.70;100990.72;5018758;28;20060;-61
2021/06/08 05:55:54;;;;;;;17.95;15.63;;;;;;;18.66;77.98;100995.88;5006556;28;20049;-60
2021/06/08 05:58:26;;;;;;;18.85;15.38;;;;;;;18.66;77.81;100995.88;5015506;28;20603;-61
2021/06/08 06:00:54;;;;;;;19.95;14.88;;;;;;;18.71;78.26;100999.97;5009112;28;20053;-60
2021/06/08 06:03:22;;;;;;;19.08;15.52;;;;;;;18.79;77.59;100991.34;5012964;28;20064;-60
2021/06/08 06:05:51;;;;;;;18.10;15.00;;;;;;;18.87;77.83;100999.72;5015197;28;20148;-61
2021/06/08 06:08:18;;;;;;;17.55;15.13;;;;;;;18.95;77.08;100991.97;5013921;28;20053;-59
2021/06/08 06:10:45;;;;;;;18.67;16.15;;;;;;;18.98;76.77;100988.19;5017502;28;20045;-62
2021/06/08 06:13:17;;;;;;;16.27;14.43;;;;;;;18.99;76.30;100992.59;5013390;28;20045;-61
2021/06/08 06:15:45;;;;;;;20.10;15.07;;;;;;;19.06;75.83;100989.34;5016135;28;20365;-61
2021/06/08 06:18:14;;;;;;;18.10;15.40;;;;;;;19.12;76.36;100986.22;5017460;28;20137;-60
2021/06/08 06:20:41;;;;;;;18.50;15.13;;;;;;;19.26;75.55;100991.44;5016423;28;20064;-61
2021/06/08 06:23:09;;;;;;;15.82;14.20;;;;;;;19.35;75.23;101000.66;5021357;28;20057;-62
2021/06/08 06:25:36;;;;;;;16.98;14.95;;;;;;;19.37;74.40;101005.88;5015284;28;20045;-61
2021/06/08 06:28:04;;;;;;;17.55;15.35;;;;;;;19.28;74.61;101000.25;5012562;28;20979;-60
2021/06/08 06:30:33;;;;;;;20.58;15.73;;;;;;;19.27;74.64;101003.88;5008998;28;20547;-61
2021/06/08 06:32:59;;;;;;;18.02;14.48;;;;;;;19.27;74.88;100994.97;5008452;28;20057;-62
2021/06/08 06:35:26;;;;;;;18.63;15.63;;;;;;;19.34;74.38;101006.13;5019059;28;20049;-61
2021/06/08 06:37:53;;;;;;;16.35;14.15;;;;;;;19.42;74.58;100998.34;5003402;28;20056;-62
2021/06/08 06:40:27;;;;;;;17.63;15.13;;;;;;;19.50;74.42;101002.25;5008735;28;20049;-60
2021/06/08 06:42:59;;;;;;;15.88;14.20;;;;;;;19.50;74.09;101007.59;5012813;28;20038;-62
2021/06/08 06:45:26;;;;;;;16.85;14.18;;;;;;;19.53;74.12;101011.88;5006469;28;20052;-63
2021/06/08 06:48:01;;;;;;;16.52;14.70;;;;;;;19.57;73.98;101010.69;5010849;28;20045;-63
2021/06/08 06:50:33;;;;;;;18.23;14.75;;;;;;;19.60;74.45;101015.81;5025153;28;20062;-61
2021/06/08 06:53:01;;;;;;;18.15;15.65;;;;;;;19.58;73.66;101015.09;5040668;28;20065;-62
2021/06/08 06:55:29;;;;;;;17.50;15.20;;;;;;;19.49;74.05;101008.59;5042024;28;20052;-62
2021/06/08 06:57:56;;;;;;;15.85;13.88;;;;;;;19.53;74.57;101011.88;5034628;28;21108;-61
2021/06/08 07:00:25;;;;;;;16.45;14.57;;;;;;;19.63;73.74;101004.84;5033350;28;20081;-61
2021/06/08 07:02:54;;;;;;;16.30;14.00;;;;;;;19.71;74.03;101005.13;5041276;28;20055;-63
2021/06/08 07:05:24;;;;;;;17.08;15.05;;;;;;;19.79;73.12;101007.25;5019907;28;20067;-62
2021/06/08 07:07:52;;;;;;;16.85;14.95;;;;;;;19.83;73.31;101014.13;5028317;28;20045;-62
2021/06/08 07:10:20;;;;;;;17.38;14.52;;;;;;;19.94;72.70;101008.78;5025501;28;20041;-60
2021/06/08 07:12:47;;;;;;;16.73;14.65;;;;;;;20.01;71.57;101018.06;5033421;28;20057;-60
2021/06/08 07:15:16;;;;;;;18.13;14.75;;;;;;;20.01;71.59;101009.13;5041063;28;20041;-61
2021/06/08 07:17:43;;;;;;;18.60;14.25;;;;;;;20.08;71.31;101016.63;5043213;28;20045;-61
2021/06/08 07:20:13;;;;;;;16.73;13.65;;;;;;;20.10;70.83;101019.22;5043389;28;20089;-61
2021/06/08 07:22:40;;;;;;;16.42;14.63;;;;;;;20.10;70.50;101021.91;5028595;28;20052;-61
2021/06/08 07:25:08;;;;;;;17.95;13.93;;;;;;;20.04;70.43;101022.34;5034720;28;20049;-61
2021/06/08 07:27:35;;;;;;;16.05;13.75;;;;;;;20.00;70.81;101028.94;5033013;28;20041;-62
2021/06/08 07:30:05;;;;;;;16.25;13.45;;;;;;;20.08;71.22;101018.47;5038043;28;20144;-60
2021/06/08 07:33:06;;;;;;;18.80;14.50;;;;;;;20.20;70.60;101023.75;5032663;28;20420;-62
2021/06/08 07:35:45;;;;;;;17.23;14.63;;;;;;;20.33;69.66;101018.28;5030900;28;20056;-59
2021/06/08 07:38:19;;;;;;;15.68;13.98;;;;;;;20.45;68.95;101022.75;5033280;28;20052;-61
2021/06/08 07:41:08;;;;;;;14.98;13.32;;;;;;;20.51;68.85;101016.00;5032114;28;20135;-62
2021/06/08 07:43:44;;;;;;;18.77;14.10;;;;;;;20.60;68.40;101016.16;5028899;28;20057;-62
2021/06/08 07:46:16;;;;;;;15.05;13.15;;;;;;;20.75;68.23;101015.91;5041981;28;20064;-62
2021/06/08 07:48:45;;;;;;;17.23;13.95;;;;;;;20.67;67.83;101022.75;5032501;28;20132;-61
2021/06/08 07:51:13;;;;;;;15.52;12.88;;;;;;;20.58;68.54;101018.13;5030143;28;20057;-61
2021/06/08 07:53:41;;;;;;;16.25;13.20;;;;;;;20.67;68.06;101028.13;5037155;28;20055;-62
2021/06/08 07:56:07;;;;;;;14.68;13.18;;;;;;;20.63;68.27;101025.81;5027922;28;20048;-62
2021/06/08 07:58:34;;;;;;;15.52;13.93;;;;;;;20.75;67.90;101018.63;5040271;28;20053;-62
2021/06/08 08:01:01;;;;;;;15.18;12.98;;;;;;;20.90;67.59;101020.06;5030286;28;20144;-61
2021/06/08 08:03:29;;;;;;;20.00;13.48;;;;;;;21.00;67.08;101016.50;5036124;28;20045;-64
2021/06/08 08:06:02;;;;;;;16.02;13.60;;;;;;;21.12;67.69;101022.72;5041803;28;20125;-60
2021/06/08 08:08:34;;;;;;;16.88;13.20;;;;;;;21.32;65.98;101022.00;5033167;28;20432;-60
2021/06/08 08:11:05;;;;;;;14.15;12.55;;;;;;;21.42;66.44;101015.84;5041532;28;20044;-63
2021/06/08 08:13:33;;;;;;;14.82;13.13;;;;;;;21.63;65.05;101022.16;5016623;28;20061;-63
2021/06/08 08:16:03;;;;;;;17.63;13.90;;;;;;;21.78;64.39;101020.88;5034173;28;20051;-62
2021/06/08 08:18:33;;;;;;;15.93;13.63;;;;;;;21.86;64.47;101025.66;4995543;28;20491;-62
2021/06/08 08:21:03;;;;;;;14.75;12.73;;;;;;;21.84;64.13;101028.47;5031736;28;20100;-59
2021/06/08 08:23:31;;;;;;;15.52;13.95;;;;;;;21.69;64.60;101021.66;5037504;28;20057;-63
2021/06/08 08:26:04;;;;;;;15.57;13.95;;;;;;;21.56;65.52;101026.38;5044353;28;20049;-64
2021/06/08 08:28:33;;;;;;;16.17;13.60;;;;;;;21.45;65.68;101021.84;5033262;28;20055;-68
2021/06/08 08:31:04;;;;;;;16.33;14.63;;;;;;;21.41;65.84;101022.25;5044079;28;20060;-62
2021/06/08 08:33:31;;;;;;;15.18;13.45;;;;;;;21.63;66.62;101011.38;5039767;28;20527;-60
2021/06/08 08:35:59;;;;;;;14.80;13.30;;;;;;;22.02;66.20;101015.31;5043977;28;20049;-61
2021/06/08 08:38:29;;;;;;;13.85;12.27;;;;;;;22.38;64.53;101014.81;5034645;28;20131;-65
2021/06/08 08:41:00;;;;;;;15.00;13.40;;;;;;;22.65;62.06;101011.59;5049604;28;20149;-61
2021/06/08 08:43:45;;;;;;;16.17;12.88;;;;;;;22.52;62.37;101012.75;5037772;28;20060;-63
2021/06/08 08:46:12;;;;;;;14.10;12.70;;;;;;;22.27;63.09;101005.97;5041368;28;20075;-61
2021/06/08 08:48:40;;;;;;;14.65;13.15;;;;;;;22.20;63.85;101008.31;5043623;28;20053;-60
2021/06/08 08:51:10;;;;;;;13.88;12.45;;;;;;;22.31;64.20;101004.72;5039213;28;20060;-64
2021/06/08 08:53:37;;;;;;;14.47;12.97;;;;;;;22.53;64.34;101007.25;5033122;28;20064;-64
2021/06/08 08:56:30;;;;;;;13.50;12.07;;;;;;;22.69;63.38;100994.09;5035506;28;20106;-61
2021/06/08 08:59:15;;;;;;;16.02;13.02;;;;;;;22.79;60.99;100998.75;5031255;28;20041;-63
2021/06/08 09:01:45;;;;;;;17.40;13.07;;;;;;;22.67;61.59;100997.94;5042392;28;20067;-62
2021/06/08 09:04:11;;;;;;;;;;;;;;;22.72;61.53;100996.53;5037600;28;20481;-60
2021/06/08 09:06:38;;;;;;;14.90;11.48;;;;;;;22.95;61.94;100993.69;5044020;28;20387;-60
2021/06/08 09:09:07;;;;;;;14.23;12.73;;;;;;;23.14;61.13;100996.44;5032286;28;20662;-62
2021/06/08 09:11:42;;;;;;;16.88;12.68;;;;;;;23.35;60.91;100988.22;5046038;28;20051;-62
2021/06/08 09:14:12;;;;;;;13.18;11.88;;;;;;;23.44;59.89;100990.97;5043959;28;20049;-62
2021/06/08 09:16:39;;;;;;;16.40;12.95;;;;;;;23.51;59.39;100999.38;5044717;28;20053;-64
2021/06/08 09:19:11;;;;;;;12.40;11.18;;;;;;;23.59;60.54;100996.84;5034787;28;20044;-60
2021/06/08 09:21:39;;;;;;;15.00;12.35;;;;;;;23.76;58.61;100995.28;5040121;28;20053;-60
2021/06/08 09:24:20;;;;;;;15.23;13.50;;;;;;;23.70;58.16;101003.97;5033378;28;20057;-62
2021/06/08 09:27:10;;;;;;;14.48;12.98;;;;;;;23.65;58.95;100998.97;5033396;28;20067;-62
2021/06/08 09:29:42;;;;;;;13.70;12.30;;;;;;;23.64;59.66;101005.38;5041516;28;20049;-62
2021/06/08 09:32:21;;;;;;;14.13;12.57;;;;;;;23.86;59.26;101014.22;5044483;28;20041;-62
2021/06/08 09:34:58;;;;;;;13.00;11.23;;;;;;;24.05;58.39;101009.66;5029243;28;20052;-62
2021/06/08 09:37:37;;;;;;;16.27;12.23;;;;;;;23.99;58.00;101003.94;5045704;28;20140;-61
2021/06/08 09:40:25;;;;;;;12.40;11.13;;;;;;;24.13;58.67;101017.88;5037246;28;20041;-62
2021/06/08 09:43:09;;;;;;;15.45;12.18;;;;;;;24.12;56.50;101018.03;5047960;28;20231;-61
2021/06/08 09:45:49;;;;;;;13.95;12.23;;;;;;;23.72;58.04;101012.78;5048560;28;20123;-61
2021/06/08 09:48:17;;;;;;;13.93;12.50;;;;;;;23.69;58.32;101013.06;5032142;28;20049;-62
2021/06/08 09:50:51;;;;;;;14.18;12.68;;;;;;;23.63;58.38;101011.75;5036676;28;20618;-61
2021/06/08 09:53:19;;;;;;;14.00;12.50;;;;;;;23.90;59.15;101013.78;5042198;28;20057;-62
2021/06/08 09:56:06;;;;;;;14.95;12.20;;;;;;;24.23;56.87;101006.22;5054840;28;20041;-62
2021/06/08 09:58:35;;;;;;;13.30;11.85;;;;;;;24.33;55.47;100999.81;5041373;28;20137;-62
2021/06/08 10:01:09;;;;;;;12.95;11.38;;;;;;;24.57;57.50;101004.72;5032784;28;20057;-62
2021/06/08 10:03:38;;;;;;;12.70;10.70;;;;;;;24.80;55.48;100999.78;5034045;28;20147;-62
2021/06/08 10:06:10;;;;;;;12.15;11.02;;;;;;;24.82;54.92;100998.66;5033007;28;20136;-61
2021/06/08 10:08:38;;;;;;;12.85;11.10;;;;;;;24.94;55.00;101001.19;5036127;28;20054;-63
2021/06/08 10:11:17;;;;;;;15.10;11.52;;;;;;;24.87;54.35;100998.19;5039340;28;20045;-61
2021/06/08 10:13:43;;;;;;;12.43;11.13;;;;;;;24.86;54.28;100992.94;5038501;28;20041;-62
2021/06/08 10:16:12;;;;;;;12.93;11.63;;;;;;;24.58;54.37;100990.16;5035176;28;20045;-62
2021/06/08 10:18:48;;;;;;;11.93;10.65;;;;;;;24.48;55.19;100990.22;5039249;28;20521;-62
2021/06/08 10:21:34;;;;;;;13.68;12.02;;;;;;;24.65;54.74;100985.88;5030009;28;20452;-62
2021/06/08 10:24:16;;;;;;;12.85;11.55;;;;;;;24.55;55.23;100985.06;5042226;28;20057;-61
2021/06/08 10:26:49;;;;;;;13.10;11.80;;;;;;;24.74;55.14;100986.84;5041797;28;20052;-62
2021/06/08 10:29:18;;;;;;;13.02;11.63;;;;;;;25.00;55.50;100984.34;5035926;28;20045;-60
2021/06/08 10:31:45;;;;;;;12.18;10.85;;;;;;;25.10;54.69;100980.56;5037907;28;20045;-62
2021/06/08 10:34:32;;;;;;;12.45;10.73;;;;;;;25.29;53.31;100978.75;5037376;28;20067;-61
2021/06/08 10:36:59;;;;;;;14.35;11.43;;;;;;;25.33;55.11;100978.28;5040352;28;20051;-62
2021/06/08 10:39:28;;;;;;;15.18;11.50;;;;;;;25.38;54.07;100977.81;5033854;28;20060;-62
2021/06/08 10:41:57;;;;;;;13.15;11.93;;;;;;;25.26;53.38;100976.31;5039796;28;20132;-62
2021/06/08 10:44:26;;;;;;;13.73;12.33;;;;;;;25.07;54.54;100974.59;5037896;28;20041;-62
2021/06/08 10:46:56;;;;;;;12.50;11.25;;;;;;;24.97;55.03;100979.22;5035868;28;20073;-61
2021/06/08 10:49:32;;;;;;;13.85;11.82;;;;;;;25.15;54.21;100978.25;5036657;28;20045;-61
2021/06/08 10:52:06;;;;;;;12.93;11.73;;;;;;;25.13;52.35;100974.84;5037868;28;20056;-62
2021/06/08 10:54:41;;;;;;;12.77;11.20;;;;;;;25.10;53.02;100983.28;5020220;28;20507;-62
2021/06/08 10:57:14;;;;;;;11.35;10.25;;;;;;;25.26;53.08;100977.19;5040001;28;20159;-61
2021/06/08 10:59:48;;;;;;;14.70;12.55;;;;;;;25.30;52.87;100964.19;5034828;28;20044;-61
2021/06/08 11:02:41;;;;;;;15.15;12.95;;;;;;;25.01;53.83;100962.50;5043237;28;20529;-61
2021/06/08 11:05:08;;;;;;;13.25;11.95;;;;;;;24.95;53.64;100964.97;5037232;28;20099;-62
2021/06/08 11:07:47;;;;;;;13.27;11.50;;;;;;;25.13;53.42;100963.16;5037940;28;20064;-62
2021/06/08 11:10:26;;;;;;;14.02;12.35;;;;;;;25.30;52.86;100958.75;5039003;28;20061;-62
2021/06/08 11:13:08;;;;;;;14.77;11.27;;;;;;;25.23;53.34;100958.50;5036754;28;20091;-62
2021/06/08 11:15:48;;;;;;;12.13;10.93;;;;;;;25.39;54.10;100955.97;5036380;28;20049;-62
2021/06/08 11:18:18;;;;;;;12.93;10.48;;;;;;;25.65;52.80;100952.53;5012730;28;20060;-62
2021/06/08 11:21:12;;;;;;;12.38;11.18;;;;;;;25.66;50.49;100956.94;5031920;28;20052;-62
2021/06/08 11:23:44;;;;;;;11.00;9.90;;;;;;;25.68;51.85;100952.19;4997500;28;20053;-61